sensor_id;sensor_type;location;lat;lon;timestamp;temperature;humidity
68439;SHT31;55421;51.600;5.718;2022-10-16T00:01:37;14.20;82.21
68439;SHT31;55421;51.600;5.718;2022-10-16T00:04:04;14.22;82.29
68439;SHT31;55421;51.600;5.718;2022-10-16T00:06:30;14.22;82.36
68439;SHT31;55421;51.600;5.718;2022-10-16T00:08:58;14.21;82.40
68439;SHT31;55421;51.600;5.718;2022-10-16T00:11:26;14.21;82.44
68439;SHT31;55421;51.600;5.718;2022-10-16T00:13:57;14.21;82.48
68439;SHT31;55421;51.600;5.718;2022-10-16T00:16:27;14.23;82.48
68439;SHT31;55421;51.600;5.718;2022-10-16T00:18:55;14.24;82.49
68439;SHT31;55421;51.600;5.718;2022-10-16T00:21:23;14.24;82.49
68439;SHT31;55421;51.600;5.718;2022-10-16T00:23:53;14.22;82.49
68439;SHT31;55421;51.600;5.718;2022-10-16T00:26:27;14.20;82.50
68439;SHT31;55421;51.600;5.718;2022-10-16T00:28:56;14.20;82.50
68439;SHT31;55421;51.600;5.718;2022-10-16T00:31:25;14.20;82.50
68439;SHT31;55421;51.600;5.718;2022-10-16T00:33:52;14.19;82.50
68439;SHT31;55421;51.600;5.718;2022-10-16T00:36:20;14.18;82.54
68439;SHT31;55421;51.600;5.718;2022-10-16T00:38:50;14.17;82.60
68439;SHT31;55421;51.600;5.718;2022-10-16T00:41:23;14.15;82.60
68439;SHT31;55421;51.600;5.718;2022-10-16T00:43:58;14.13;82.60
68439;SHT31;55421;51.600;5.718;2022-10-16T00:46:35;14.14;82.59
68439;SHT31;55421;51.600;5.718;2022-10-16T00:49:12;14.14;82.60
68439;SHT31;55421;51.600;5.718;2022-10-16T00:51:52;14.12;82.62
68439;SHT31;55421;51.600;5.718;2022-10-16T00:54:24;14.09;82.62
68439;SHT31;55421;51.600;5.718;2022-10-16T00:56:55;14.04;82.66
68439;SHT31;55421;51.600;5.718;2022-10-16T00:59:28;14.02;82.76
68439;SHT31;55421;51.600;5.718;2022-10-16T01:02:00;14.01;82.81
68439;SHT31;55421;51.600;5.718;2022-10-16T01:04:30;14.02;82.82
68439;SHT31;55421;51.600;5.718;2022-10-16T01:13:21;13.98;82.89
68439;SHT31;55421;51.600;5.718;2022-10-16T01:16:15;13.96;82.88
68439;SHT31;55421;51.600;5.718;2022-10-16T01:18:54;13.95;82.91
68439;SHT31;55421;51.600;5.718;2022-10-16T01:21:43;13.94;82.99
68439;SHT31;55421;51.600;5.718;2022-10-16T01:24:33;13.93;83.00
68439;SHT31;55421;51.600;5.718;2022-10-16T01:27:14;13.90;83.08
68439;SHT31;55421;51.600;5.718;2022-10-16T01:35:36;13.86;83.22
68439;SHT31;55421;51.600;5.718;2022-10-16T01:38:14;13.88;83.22
68439;SHT31;55421;51.600;5.718;2022-10-16T01:40:51;13.90;83.28
68439;SHT31;55421;51.600;5.718;2022-10-16T01:43:27;13.91;83.24
68439;SHT31;55421;51.600;5.718;2022-10-16T01:46:01;13.90;83.28
68439;SHT31;55421;51.600;5.718;2022-10-16T01:48:28;13.91;83.28
68439;SHT31;55421;51.600;5.718;2022-10-16T01:51:03;13.93;83.20
68439;SHT31;55421;51.600;5.718;2022-10-16T01:53:36;13.96;83.23
68439;SHT31;55421;51.600;5.718;2022-10-16T01:56:03;13.98;83.24
68439;SHT31;55421;51.600;5.718;2022-10-16T01:58:37;13.99;83.21
68439;SHT31;55421;51.600;5.718;2022-10-16T02:01:13;13.99;83.20
68439;SHT31;55421;51.600;5.718;2022-10-16T02:03:48;13.99;83.17
68439;SHT31;55421;51.600;5.718;2022-10-16T02:06:19;14.00;83.12
68439;SHT31;55421;51.600;5.718;2022-10-16T02:08:46;14.02;83.17
68439;SHT31;55421;51.600;5.718;2022-10-16T02:11:14;14.02;83.13
68439;SHT31;55421;51.600;5.718;2022-10-16T02:13:51;14.04;83.17
68439;SHT31;55421;51.600;5.718;2022-10-16T02:16:35;14.05;83.21
68439;SHT31;55421;51.600;5.718;2022-10-16T02:19:11;14.05;83.10
68439;SHT31;55421;51.600;5.718;2022-10-16T02:21:43;14.06;83.03
68439;SHT31;55421;51.600;5.718;2022-10-16T02:29:42;14.02;82.93
68439;SHT31;55421;51.600;5.718;2022-10-16T02:32:19;13.99;82.92
68439;SHT31;55421;51.600;5.718;2022-10-16T02:34:50;13.97;82.90
68439;SHT31;55421;51.600;5.718;2022-10-16T02:37:17;13.96;82.90
68439;SHT31;55421;51.600;5.718;2022-10-16T02:39:45;13.97;82.90
68439;SHT31;55421;51.600;5.718;2022-10-16T02:42:12;13.94;82.91
68439;SHT31;55421;51.600;5.718;2022-10-16T02:44:39;13.93;82.91
68439;SHT31;55421;51.600;5.718;2022-10-16T02:47:06;13.91;82.88
68439;SHT31;55421;51.600;5.718;2022-10-16T02:49:32;13.90;82.90
68439;SHT31;55421;51.600;5.718;2022-10-16T02:51:59;13.90;82.90
68439;SHT31;55421;51.600;5.718;2022-10-16T02:54:25;13.90;82.90
68439;SHT31;55421;51.600;5.718;2022-10-16T02:56:52;13.89;82.90
68439;SHT31;55421;51.600;5.718;2022-10-16T02:59:19;13.89;82.90
68439;SHT31;55421;51.600;5.718;2022-10-16T03:01:45;13.87;82.86
68439;SHT31;55421;51.600;5.718;2022-10-16T03:04:12;13.84;82.80
68439;SHT31;55421;51.600;5.718;2022-10-16T03:06:38;13.83;82.90
68439;SHT31;55421;51.600;5.718;2022-10-16T03:09:04;13.84;82.89
68439;SHT31;55421;51.600;5.718;2022-10-16T03:11:32;13.84;82.87
68439;SHT31;55421;51.600;5.718;2022-10-16T03:13:59;13.79;82.87
68439;SHT31;55421;51.600;5.718;2022-10-16T03:16:25;13.76;82.90
68439;SHT31;55421;51.600;5.718;2022-10-16T03:18:51;13.72;82.94
68439;SHT31;55421;51.600;5.718;2022-10-16T03:21:18;13.69;83.00
68439;SHT31;55421;51.600;5.718;2022-10-16T03:23:44;13.69;83.05
68439;SHT31;55421;51.600;5.718;2022-10-16T03:26:11;13.70;83.02
68439;SHT31;55421;51.600;5.718;2022-10-16T03:28:37;13.69;83.06
68439;SHT31;55421;51.600;5.718;2022-10-16T03:31:03;13.68;83.08
68439;SHT31;55421;51.600;5.718;2022-10-16T03:33:30;13.65;83.06
68439;SHT31;55421;51.600;5.718;2022-10-16T03:35:57;13.61;83.17
68439;SHT31;55421;51.600;5.718;2022-10-16T03:38:23;13.60;83.20
68439;SHT31;55421;51.600;5.718;2022-10-16T03:40:50;13.59;83.25
68439;SHT31;55421;51.600;5.718;2022-10-16T03:43:16;13.59;83.28
68439;SHT31;55421;51.600;5.718;2022-10-16T03:45:43;13.58;83.30
68439;SHT31;55421;51.600;5.718;2022-10-16T03:48:09;13.58;83.38
68439;SHT31;55421;51.600;5.718;2022-10-16T03:50:35;13.57;83.38
68439;SHT31;55421;51.600;5.718;2022-10-16T03:53:02;13.55;83.40
68439;SHT31;55421;51.600;5.718;2022-10-16T03:55:29;13.56;83.40
68439;SHT31;55421;51.600;5.718;2022-10-16T03:57:56;13.58;83.40
68439;SHT31;55421;51.600;5.718;2022-10-16T04:00:22;13.59;83.42
68439;SHT31;55421;51.600;5.718;2022-10-16T04:02:48;13.59;83.42
68439;SHT31;55421;51.600;5.718;2022-10-16T04:05:15;13.57;83.42
68439;SHT31;55421;51.600;5.718;2022-10-16T04:07:41;13.56;83.49
68439;SHT31;55421;51.600;5.718;2022-10-16T04:10:08;13.55;83.57
68439;SHT31;55421;51.600;5.718;2022-10-16T04:12:34;13.56;83.55
68439;SHT31;55421;51.600;5.718;2022-10-16T04:15:01;13.57;83.61
68439;SHT31;55421;51.600;5.718;2022-10-16T04:17:27;13.58;83.64
68439;SHT31;55421;51.600;5.718;2022-10-16T04:19:54;13.57;83.66
68439;SHT31;55421;51.600;5.718;2022-10-16T04:22:20;13.56;83.66
68439;SHT31;55421;51.600;5.718;2022-10-16T04:24:46;13.53;83.70
68439;SHT31;55421;51.600;5.718;2022-10-16T04:27:13;13.53;83.76
68439;SHT31;55421;51.600;5.718;2022-10-16T04:29:39;13.54;83.81
68439;SHT31;55421;51.600;5.718;2022-10-16T04:32:07;13.56;83.80
68439;SHT31;55421;51.600;5.718;2022-10-16T04:34:35;13.58;83.80
68439;SHT31;55421;51.600;5.718;2022-10-16T04:37:02;13.59;83.80
68439;SHT31;55421;51.600;5.718;2022-10-16T04:39:29;13.59;83.84
68439;SHT31;55421;51.600;5.718;2022-10-16T04:41:55;13.59;83.88
68439;SHT31;55421;51.600;5.718;2022-10-16T04:44:21;13.58;83.88
68439;SHT31;55421;51.600;5.718;2022-10-16T04:46:49;13.59;83.90
68439;SHT31;55421;51.600;5.718;2022-10-16T04:49:17;13.59;83.90
68439;SHT31;55421;51.600;5.718;2022-10-16T04:51:43;13.60;83.95
68439;SHT31;55421;51.600;5.718;2022-10-16T04:54:10;13.59;83.91
68439;SHT31;55421;51.600;5.718;2022-10-16T04:56:36;13.58;83.98
68439;SHT31;55421;51.600;5.718;2022-10-16T04:59:09;13.56;84.00
68439;SHT31;55421;51.600;5.718;2022-10-16T05:01:35;13.55;84.03
68439;SHT31;55421;51.600;5.718;2022-10-16T05:04:01;13.56;84.05
68439;SHT31;55421;51.600;5.718;2022-10-16T05:06:28;13.58;84.10
68439;SHT31;55421;51.600;5.718;2022-10-16T05:08:54;13.57;84.10
68439;SHT31;55421;51.600;5.718;2022-10-16T05:11:21;13.57;84.10
68439;SHT31;55421;51.600;5.718;2022-10-16T05:13:49;13.55;84.13
68439;SHT31;55421;51.600;5.718;2022-10-16T05:16:16;13.55;84.17
68439;SHT31;55421;51.600;5.718;2022-10-16T05:18:42;13.57;84.20
68439;SHT31;55421;51.600;5.718;2022-10-16T05:21:09;13.58;84.18
68439;SHT31;55421;51.600;5.718;2022-10-16T05:23:35;13.58;84.11
68439;SHT31;55421;51.600;5.718;2022-10-16T05:26:01;13.57;84.15
68439;SHT31;55421;51.600;5.718;2022-10-16T05:28:28;13.56;84.21
68439;SHT31;55421;51.600;5.718;2022-10-16T05:30:56;13.52;84.26
68439;SHT31;55421;51.600;5.718;2022-10-16T05:33:24;13.51;84.29
68439;SHT31;55421;51.600;5.718;2022-10-16T05:35:51;13.52;84.23
68439;SHT31;55421;51.600;5.718;2022-10-16T05:38:18;13.52;84.30
68439;SHT31;55421;51.600;5.718;2022-10-16T05:40:50;13.53;84.30
68439;SHT31;55421;51.600;5.718;2022-10-16T05:43:19;13.51;84.36
68439;SHT31;55421;51.600;5.718;2022-10-16T05:45:56;13.51;84.40
68439;SHT31;55421;51.600;5.718;2022-10-16T05:48:25;13.49;84.43
68439;SHT31;55421;51.600;5.718;2022-10-16T05:50:56;13.49;84.45
68439;SHT31;55421;51.600;5.718;2022-10-16T05:53:26;13.49;84.44
68439;SHT31;55421;51.600;5.718;2022-10-16T05:55:54;13.50;84.47
68439;SHT31;55421;51.600;5.718;2022-10-16T05:58:22;13.52;84.47
68439;SHT31;55421;51.600;5.718;2022-10-16T06:00:52;13.51;84.48
68439;SHT31;55421;51.600;5.718;2022-10-16T06:03:22;13.49;84.51
68439;SHT31;55421;51.600;5.718;2022-10-16T06:05:49;13.49;84.50
68439;SHT31;55421;51.600;5.718;2022-10-16T06:08:17;13.50;84.44
68439;SHT31;55421;51.600;5.718;2022-10-16T06:10:46;13.52;84.48
68439;SHT31;55421;51.600;5.718;2022-10-16T06:13:13;13.54;84.47
68439;SHT31;55421;51.600;5.718;2022-10-16T06:15:41;13.56;84.40
68439;SHT31;55421;51.600;5.718;2022-10-16T06:18:09;13.56;84.40
68439;SHT31;55421;51.600;5.718;2022-10-16T06:20:36;13.57;84.40
68439;SHT31;55421;51.600;5.718;2022-10-16T06:23:03;13.60;84.34
68439;SHT31;55421;51.600;5.718;2022-10-16T06:25:30;13.62;84.20
68439;SHT31;55421;51.600;5.718;2022-10-16T06:27:57;13.65;84.22
68439;SHT31;55421;51.600;5.718;2022-10-16T06:30:24;13.68;84.22
68439;SHT31;55421;51.600;5.718;2022-10-16T06:32:50;13.67;84.14
68439;SHT31;55421;51.600;5.718;2022-10-16T06:35:17;13.67;84.17
68439;SHT31;55421;51.600;5.718;2022-10-16T06:37:43;13.66;84.15
68439;SHT31;55421;51.600;5.718;2022-10-16T06:40:09;13.68;84.15
68439;SHT31;55421;51.600;5.718;2022-10-16T06:42:36;13.70;84.10
68439;SHT31;55421;51.600;5.718;2022-10-16T06:45:02;13.72;84.12
68439;SHT31;55421;51.600;5.718;2022-10-16T06:47:29;13.75;84.17
68439;SHT31;55421;51.600;5.718;2022-10-16T06:49:55;13.79;84.13
68439;SHT31;55421;51.600;5.718;2022-10-16T06:52:22;13.82;84.15
68439;SHT31;55421;51.600;5.718;2022-10-16T06:54:49;13.88;84.11
68439;SHT31;55421;51.600;5.718;2022-10-16T06:57:15;13.96;84.08
68439;SHT31;55421;51.600;5.718;2022-10-16T06:59:42;14.02;84.00
68439;SHT31;55421;51.600;5.718;2022-10-16T07:02:08;14.07;83.98
68439;SHT31;55421;51.600;5.718;2022-10-16T07:04:36;14.11;83.90
68439;SHT31;55421;51.600;5.718;2022-10-16T07:07:02;14.15;83.83
68439;SHT31;55421;51.600;5.718;2022-10-16T07:09:29;14.20;83.78
68439;SHT31;55421;51.600;5.718;2022-10-16T07:11:55;14.24;83.71
68439;SHT31;55421;51.600;5.718;2022-10-16T07:14:22;14.30;83.66
68439;SHT31;55421;51.600;5.718;2022-10-16T07:16:48;14.38;83.60
68439;SHT31;55421;51.600;5.718;2022-10-16T07:19:15;14.45;83.54
68439;SHT31;55421;51.600;5.718;2022-10-16T07:21:43;14.49;83.39
68439;SHT31;55421;51.600;5.718;2022-10-16T07:24:11;14.53;83.29
68439;SHT31;55421;51.600;5.718;2022-10-16T07:26:42;14.56;83.17
68439;SHT31;55421;51.600;5.718;2022-10-16T07:29:12;14.60;83.08
68439;SHT31;55421;51.600;5.718;2022-10-16T07:31:42;14.65;82.99
68439;SHT31;55421;51.600;5.718;2022-10-16T07:34:09;14.69;83.00
68439;SHT31;55421;51.600;5.718;2022-10-16T07:36:37;14.75;82.88
68439;SHT31;55421;51.600;5.718;2022-10-16T07:39:03;14.77;82.78
68439;SHT31;55421;51.600;5.718;2022-10-16T07:41:30;14.82;82.70
68439;SHT31;55421;51.600;5.718;2022-10-16T07:43:58;14.86;82.60
68439;SHT31;55421;51.600;5.718;2022-10-16T07:46:26;14.90;82.50
68439;SHT31;55421;51.600;5.718;2022-10-16T07:48:54;14.94;82.43
68439;SHT31;55421;51.600;5.718;2022-10-16T07:51:21;14.97;82.41
68439;SHT31;55421;51.600;5.718;2022-10-16T07:53:50;15.00;82.39
68439;SHT31;55421;51.600;5.718;2022-10-16T07:56:18;15.02;82.27
68439;SHT31;55421;51.600;5.718;2022-10-16T07:58:46;15.06;82.21
68439;SHT31;55421;51.600;5.718;2022-10-16T08:01:15;15.15;82.23
68439;SHT31;55421;51.600;5.718;2022-10-16T08:03:44;15.21;82.23
68439;SHT31;55421;51.600;5.718;2022-10-16T08:06:12;15.29;82.17
68439;SHT31;55421;51.600;5.718;2022-10-16T08:08:39;15.34;82.02
68439;SHT31;55421;51.600;5.718;2022-10-16T08:11:05;15.39;81.90
68439;SHT31;55421;51.600;5.718;2022-10-16T08:13:32;15.46;81.79
68439;SHT31;55421;51.600;5.718;2022-10-16T08:15:58;15.56;81.64
68439;SHT31;55421;51.600;5.718;2022-10-16T08:18:25;15.62;81.48
68439;SHT31;55421;51.600;5.718;2022-10-16T08:20:55;15.68;81.36
68439;SHT31;55421;51.600;5.718;2022-10-16T08:23:23;15.71;81.21
68439;SHT31;55421;51.600;5.718;2022-10-16T08:25:55;15.73;81.08
68439;SHT31;55421;51.600;5.718;2022-10-16T08:28:28;15.75;80.79
68439;SHT31;55421;51.600;5.718;2022-10-16T08:30:54;15.79;80.60
68439;SHT31;55421;51.600;5.718;2022-10-16T08:33:22;15.78;80.43
68439;SHT31;55421;51.600;5.718;2022-10-16T08:35:52;15.75;80.40
68439;SHT31;55421;51.600;5.718;2022-10-16T08:38:19;15.76;80.37
68439;SHT31;55421;51.600;5.718;2022-10-16T08:40:46;15.81;80.50
68439;SHT31;55421;51.600;5.718;2022-10-16T08:48:58;16.07;80.14
68439;SHT31;55421;51.600;5.718;2022-10-16T08:51:27;16.13;80.02
68439;SHT31;55421;51.600;5.718;2022-10-16T08:54:04;16.20;79.79
68439;SHT31;55421;51.600;5.718;2022-10-16T08:57:14;16.17;79.60
68439;SHT31;55421;51.600;5.718;2022-10-16T08:59:46;16.28;79.62
68439;SHT31;55421;51.600;5.718;2022-10-16T09:02:23;16.31;79.35
68439;SHT31;55421;51.600;5.718;2022-10-16T09:08:03;16.41;79.23
68439;SHT31;55421;51.600;5.718;2022-10-16T09:10:51;16.47;79.22
68439;SHT31;55421;51.600;5.718;2022-10-16T09:16:24;16.68;78.61
68439;SHT31;55421;51.600;5.718;2022-10-16T09:19:16;16.76;78.39
68439;SHT31;55421;51.600;5.718;2022-10-16T09:21:55;16.87;78.26
68439;SHT31;55421;51.600;5.718;2022-10-16T09:24:24;16.92;78.32
68439;SHT31;55421;51.600;5.718;2022-10-16T09:26:52;16.98;78.18
68439;SHT31;55421;51.600;5.718;2022-10-16T09:29:19;17.04;77.98
68439;SHT31;55421;51.600;5.718;2022-10-16T09:31:47;17.12;77.63
68439;SHT31;55421;51.600;5.718;2022-10-16T09:34:20;17.19;77.37
68439;SHT31;55421;51.600;5.718;2022-10-16T09:36:52;17.21;76.63
68439;SHT31;55421;51.600;5.718;2022-10-16T09:39:18;17.26;76.45
68439;SHT31;55421;51.600;5.718;2022-10-16T09:41:45;17.32;76.20
68439;SHT31;55421;51.600;5.718;2022-10-16T09:44:24;17.33;75.80
68439;SHT31;55421;51.600;5.718;2022-10-16T09:47:05;17.32;76.04
68439;SHT31;55421;51.600;5.718;2022-10-16T09:49:55;17.36;75.84
68439;SHT31;55421;51.600;5.718;2022-10-16T09:52:27;17.43;75.72
68439;SHT31;55421;51.600;5.718;2022-10-16T09:54:56;17.53;75.69
68439;SHT31;55421;51.600;5.718;2022-10-16T09:57:48;17.57;75.07
68439;SHT31;55421;51.600;5.718;2022-10-16T10:00:16;17.55;74.79
68439;SHT31;55421;51.600;5.718;2022-10-16T10:02:44;17.56;74.85
68439;SHT31;55421;51.600;5.718;2022-10-16T10:05:19;17.61;74.90
68439;SHT31;55421;51.600;5.718;2022-10-16T10:07:54;17.64;75.03
68439;SHT31;55421;51.600;5.718;2022-10-16T10:10:30;17.72;74.91
68439;SHT31;55421;51.600;5.718;2022-10-16T10:12:59;17.83;74.54
68439;SHT31;55421;51.600;5.718;2022-10-16T10:15:26;17.92;74.13
68439;SHT31;55421;51.600;5.718;2022-10-16T10:17:59;18.06;73.94
68439;SHT31;55421;51.600;5.718;2022-10-16T10:20:32;18.16;73.41
68439;SHT31;55421;51.600;5.718;2022-10-16T10:26:02;18.19;73.35
68439;SHT31;55421;51.600;5.718;2022-10-16T10:34:35;18.17;72.78
68439;SHT31;55421;51.600;5.718;2022-10-16T10:37:37;18.12;72.91
68439;SHT31;55421;51.600;5.718;2022-10-16T10:40:40;18.12;72.79
68439;SHT31;55421;51.600;5.718;2022-10-16T10:46:00;18.32;72.40
68439;SHT31;55421;51.600;5.718;2022-10-16T10:55:16;18.59;71.59
68439;SHT31;55421;51.600;5.718;2022-10-16T11:04:24;18.64;70.20
68439;SHT31;55421;51.600;5.718;2022-10-16T11:07:18;18.71;70.02
68439;SHT31;55421;51.600;5.718;2022-10-16T11:09:53;18.79;70.23
68439;SHT31;55421;51.600;5.718;2022-10-16T11:12:32;18.86;70.16
68439;SHT31;55421;51.600;5.718;2022-10-16T11:17:59;19.00;70.32
68439;SHT31;55421;51.600;5.718;2022-10-16T11:20:41;19.04;70.27
68439;SHT31;55421;51.600;5.718;2022-10-16T11:25:59;19.07;70.17
68439;SHT31;55421;51.600;5.718;2022-10-16T11:28:34;19.13;69.83
68439;SHT31;55421;51.600;5.718;2022-10-16T11:34:06;19.10;68.84
68439;SHT31;55421;51.600;5.718;2022-10-16T11:36:49;19.09;68.87
68439;SHT31;55421;51.600;5.718;2022-10-16T11:39:35;19.10;68.43
68439;SHT31;55421;51.600;5.718;2022-10-16T11:42:08;19.10;68.27
68439;SHT31;55421;51.600;5.718;2022-10-16T11:44:50;19.09;68.24
68439;SHT31;55421;51.600;5.718;2022-10-16T11:47:45;19.04;67.89
68439;SHT31;55421;51.600;5.718;2022-10-16T11:50:24;18.92;67.71
68439;SHT31;55421;51.600;5.718;2022-10-16T11:56:20;18.73;68.00
68439;SHT31;55421;51.600;5.718;2022-10-16T11:58:52;18.69;68.22
68439;SHT31;55421;51.600;5.718;2022-10-16T12:01:35;18.72;68.38
68439;SHT31;55421;51.600;5.718;2022-10-16T12:04:14;18.79;68.08
68439;SHT31;55421;51.600;5.718;2022-10-16T12:07:11;18.95;68.14
68439;SHT31;55421;51.600;5.718;2022-10-16T12:09:44;19.10;67.95
68439;SHT31;55421;51.600;5.718;2022-10-16T12:15:15;19.34;67.55
68439;SHT31;55421;51.600;5.718;2022-10-16T12:17:47;19.39;67.61
68439;SHT31;55421;51.600;5.718;2022-10-16T12:20:19;19.46;67.29
68439;SHT31;55421;51.600;5.718;2022-10-16T12:22:54;19.48;66.23
68439;SHT31;55421;51.600;5.718;2022-10-16T12:25:31;19.48;66.11
68439;SHT31;55421;51.600;5.718;2022-10-16T12:30:43;19.45;66.04
68439;SHT31;55421;51.600;5.718;2022-10-16T12:33:28;19.42;66.07
68439;SHT31;55421;51.600;5.718;2022-10-16T12:35:58;19.37;65.41
68439;SHT31;55421;51.600;5.718;2022-10-16T12:38:46;19.31;64.69
68439;SHT31;55421;51.600;5.718;2022-10-16T12:41:32;19.27;64.80
68439;SHT31;55421;51.600;5.718;2022-10-16T12:44:03;19.22;65.00
68439;SHT31;55421;51.600;5.718;2022-10-16T12:51:37;19.05;65.35
68439;SHT31;55421;51.600;5.718;2022-10-16T13:00:04;18.82;66.02
68439;SHT31;55421;51.600;5.718;2022-10-16T13:11:42;18.83;66.42
68439;SHT31;55421;51.600;5.718;2022-10-16T13:18:00;18.83;66.09
68439;SHT31;55421;51.600;5.718;2022-10-16T13:20:51;18.87;66.28
68439;SHT31;55421;51.600;5.718;2022-10-16T13:24:16;18.83;66.25
68439;SHT31;55421;51.600;5.718;2022-10-16T13:29:53;18.67;66.23
68439;SHT31;55421;51.600;5.718;2022-10-16T13:32:28;18.61;66.43
68439;SHT31;55421;51.600;5.718;2022-10-16T13:34:55;18.55;66.23
68439;SHT31;55421;51.600;5.718;2022-10-16T13:37:22;18.51;66.22
68439;SHT31;55421;51.600;5.718;2022-10-16T13:39:51;18.50;66.34
68439;SHT31;55421;51.600;5.718;2022-10-16T13:42:43;18.50;66.51
68439;SHT31;55421;51.600;5.718;2022-10-16T13:45:19;18.54;66.81
68439;SHT31;55421;51.600;5.718;2022-10-16T13:47:48;18.56;66.84
68439;SHT31;55421;51.600;5.718;2022-10-16T13:50:17;18.61;66.86
68439;SHT31;55421;51.600;5.718;2022-10-16T13:52:44;18.67;66.75
68439;SHT31;55421;51.600;5.718;2022-10-16T13:55:12;18.72;66.50
68439;SHT31;55421;51.600;5.718;2022-10-16T13:57:41;18.76;66.53
68439;SHT31;55421;51.600;5.718;2022-10-16T14:00:23;18.77;66.33
68439;SHT31;55421;51.600;5.718;2022-10-16T14:02:58;18.79;66.32
68439;SHT31;55421;51.600;5.718;2022-10-16T14:05:31;18.81;66.38
68439;SHT31;55421;51.600;5.718;2022-10-16T14:07:59;18.81;66.49
68439;SHT31;55421;51.600;5.718;2022-10-16T14:10:30;18.83;66.65
68439;SHT31;55421;51.600;5.718;2022-10-16T14:13:02;18.85;66.65
68439;SHT31;55421;51.600;5.718;2022-10-16T14:15:34;18.88;66.82
68439;SHT31;55421;51.600;5.718;2022-10-16T14:18:02;18.89;66.81
68439;SHT31;55421;51.600;5.718;2022-10-16T14:20:30;18.91;66.91
68439;SHT31;55421;51.600;5.718;2022-10-16T14:23:04;18.91;66.69
68439;SHT31;55421;51.600;5.718;2022-10-16T14:25:43;18.90;66.53
68439;SHT31;55421;51.600;5.718;2022-10-16T14:30:55;18.85;66.88
68439;SHT31;55421;51.600;5.718;2022-10-16T14:38:39;18.70;67.39
68439;SHT31;55421;51.600;5.718;2022-10-16T14:41:14;18.66;67.57
68439;SHT31;55421;51.600;5.718;2022-10-16T14:43:42;18.63;67.47
68439;SHT31;55421;51.600;5.718;2022-10-16T14:46:12;18.62;67.62
68439;SHT31;55421;51.600;5.718;2022-10-16T14:48:49;18.65;67.90
68439;SHT31;55421;51.600;5.718;2022-10-16T14:51:17;18.68;68.02
68439;SHT31;55421;51.600;5.718;2022-10-16T14:53:46;18.69;68.14
68439;SHT31;55421;51.600;5.718;2022-10-16T14:56:17;18.73;68.35
68439;SHT31;55421;51.600;5.718;2022-10-16T14:58:47;18.76;68.42
68439;SHT31;55421;51.600;5.718;2022-10-16T15:01:16;18.78;68.41
68439;SHT31;55421;51.600;5.718;2022-10-16T15:03:44;18.79;68.48
68439;SHT31;55421;51.600;5.718;2022-10-16T15:06:10;18.79;68.53
68439;SHT31;55421;51.600;5.718;2022-10-16T15:08:39;18.80;68.69
68439;SHT31;55421;51.600;5.718;2022-10-16T15:11:10;18.79;68.73
68439;SHT31;55421;51.600;5.718;2022-10-16T15:13:40;18.76;68.95
68439;SHT31;55421;51.600;5.718;2022-10-16T15:16:09;18.75;69.00
68439;SHT31;55421;51.600;5.718;2022-10-16T15:18:39;18.75;69.15
68439;SHT31;55421;51.600;5.718;2022-10-16T15:21:05;18.74;69.18
68439;SHT31;55421;51.600;5.718;2022-10-16T15:23:32;18.73;69.12
68439;SHT31;55421;51.600;5.718;2022-10-16T15:25:59;18.72;69.17
68439;SHT31;55421;51.600;5.718;2022-10-16T15:28:26;18.68;69.22
68439;SHT31;55421;51.600;5.718;2022-10-16T15:30:53;18.66;69.41
68439;SHT31;55421;51.600;5.718;2022-10-16T15:33:26;18.63;69.50
68439;SHT31;55421;51.600;5.718;2022-10-16T15:35:54;18.59;69.56
68439;SHT31;55421;51.600;5.718;2022-10-16T15:38:21;18.52;69.75
68439;SHT31;55421;51.600;5.718;2022-10-16T15:40:49;18.45;69.81
68439;SHT31;55421;51.600;5.718;2022-10-16T15:43:15;18.39;69.97
68439;SHT31;55421;51.600;5.718;2022-10-16T15:45:42;18.35;70.17
68439;SHT31;55421;51.600;5.718;2022-10-16T15:48:10;18.34;70.29
68439;SHT31;55421;51.600;5.718;2022-10-16T15:50:39;18.33;70.27
68439;SHT31;55421;51.600;5.718;2022-10-16T15:53:06;18.33;70.43
68439;SHT31;55421;51.600;5.718;2022-10-16T15:55:33;18.33;70.54
68439;SHT31;55421;51.600;5.718;2022-10-16T15:58:00;18.32;70.54
68439;SHT31;55421;51.600;5.718;2022-10-16T16:00:26;18.29;70.61
68439;SHT31;55421;51.600;5.718;2022-10-16T16:02:53;18.25;70.62
68439;SHT31;55421;51.600;5.718;2022-10-16T16:05:20;18.22;70.59
68439;SHT31;55421;51.600;5.718;2022-10-16T16:07:48;18.18;70.65
68439;SHT31;55421;51.600;5.718;2022-10-16T16:10:16;18.16;70.83
68439;SHT31;55421;51.600;5.718;2022-10-16T16:12:45;18.13;71.00
68439;SHT31;55421;51.600;5.718;2022-10-16T16:15:21;18.12;71.27
68439;SHT31;55421;51.600;5.718;2022-10-16T16:17:48;18.11;71.45
68439;SHT31;55421;51.600;5.718;2022-10-16T16:20:15;18.12;71.63
68439;SHT31;55421;51.600;5.718;2022-10-16T16:22:42;18.11;71.83
68439;SHT31;55421;51.600;5.718;2022-10-16T16:25:08;18.07;71.94
68439;SHT31;55421;51.600;5.718;2022-10-16T16:27:35;18.01;72.09
68439;SHT31;55421;51.600;5.718;2022-10-16T16:30:05;17.94;72.17
68439;SHT31;55421;51.600;5.718;2022-10-16T16:32:34;17.91;72.36
68439;SHT31;55421;51.600;5.718;2022-10-16T16:35:01;17.89;72.54
68439;SHT31;55421;51.600;5.718;2022-10-16T16:37:29;17.89;72.67
68439;SHT31;55421;51.600;5.718;2022-10-16T16:39:56;17.86;72.77
68439;SHT31;55421;51.600;5.718;2022-10-16T16:42:25;17.80;72.87
68439;SHT31;55421;51.600;5.718;2022-10-16T16:44:52;17.75;73.01
68439;SHT31;55421;51.600;5.718;2022-10-16T16:47:19;17.72;73.07
68439;SHT31;55421;51.600;5.718;2022-10-16T16:49:46;17.67;73.18
68439;SHT31;55421;51.600;5.718;2022-10-16T16:52:13;17.65;73.20
68439;SHT31;55421;51.600;5.718;2022-10-16T16:54:40;17.65;73.29
68439;SHT31;55421;51.600;5.718;2022-10-16T16:57:06;17.63;73.30
68439;SHT31;55421;51.600;5.718;2022-10-16T16:59:33;17.59;73.38
68439;SHT31;55421;51.600;5.718;2022-10-16T17:02:00;17.56;73.63
68439;SHT31;55421;51.600;5.718;2022-10-16T17:04:26;17.52;73.94
68439;SHT31;55421;51.600;5.718;2022-10-16T17:06:53;17.48;74.17
68439;SHT31;55421;51.600;5.718;2022-10-16T17:09:21;17.48;74.29
68439;SHT31;55421;51.600;5.718;2022-10-16T17:11:48;17.48;74.41
68439;SHT31;55421;51.600;5.718;2022-10-16T17:14:15;17.48;74.37
68439;SHT31;55421;51.600;5.718;2022-10-16T17:16:41;17.47;74.37
68439;SHT31;55421;51.600;5.718;2022-10-16T17:19:11;17.44;74.32
68439;SHT31;55421;51.600;5.718;2022-10-16T17:21:40;17.41;74.31
68439;SHT31;55421;51.600;5.718;2022-10-16T17:24:08;17.39;74.38
68439;SHT31;55421;51.600;5.718;2022-10-16T17:26:35;17.36;74.40
68439;SHT31;55421;51.600;5.718;2022-10-16T17:29:06;17.34;74.53
68439;SHT31;55421;51.600;5.718;2022-10-16T17:31:37;17.31;74.70
68439;SHT31;55421;51.600;5.718;2022-10-16T17:34:06;17.25;74.79
68439;SHT31;55421;51.600;5.718;2022-10-16T17:36:35;17.20;74.84
68439;SHT31;55421;51.600;5.718;2022-10-16T17:39:09;17.15;74.96